Gouwestroom — PDGR — position and weather

sailwx.info

Track history (hours):
 
Tides and Currents Weather Stations Pressure Air Temp Water Temp Dewpoint Dewpoint Depression Visibility Wind Speed Wind Dir Waves Ship Positions

Gouwestroom

Last reported at 2017-Sep-21 13:23 UTC. Time now 2017-Sep-24 03:32 UTC.
Position N 51°49' E 004°53'.

Length 20 m; draft 2.4 m.

Type: Tug. MMSI: 246166000.

Date/timePositionNaut miles runAvg speedWind from/ knotsBaromVisibWave heightAir tempDewpointWater temp
2017-Sep-21 13:23N 51°49' E 004°53'0 0.0
2017-Sep-20 17:46N 51°49' E 004°53'0 0.1
2017-Sep-20 17:30N 51°49' E 004°53'3 6.4
2017-Sep-20 17:00N 51°49' E 004°47'4 7.3
2017-Sep-20 16:31N 51°49' E 004°42'4 7.2
2017-Sep-20 15:59N 51°52' E 004°38'1 1.9
2017-Sep-20 15:30N 51°53' E 004°37'0 0.1
2017-Sep-20 15:00N 51°53' E 004°37'0 0.3
2017-Sep-20 14:00N 51°53' E 004°37'0 0.6
2017-Sep-20 13:30N 51°53' E 004°37'0 0.3
2017-Sep-20 13:00N 51°53' E 004°37'0 0.0
2017-Sep-20 12:30N 51°53' E 004°37'0 0.1
2017-Sep-20 12:00N 51°53' E 004°37'0 0.1
2017-Sep-20 11:30N 51°53' E 004°37'4 7.7
2017-Sep-20 11:01N 51°50' E 004°40'4 7.4
2017-Sep-20 10:31N 51°49' E 004°46'3 6.9
2017-Sep-20 10:00N 51°49' E 004°52'1 0.0
2017-Sep-18 12:08N 51°49' E 004°53'0 0.0
2017-Sep-18 12:00N 51°49' E 004°53'0 0.1
2017-Sep-18 11:31N 51°49' E 004°53'0 0.1
2017-Sep-18 11:01N 51°49' E 004°53'0 0.0
2017-Sep-18 10:30N 51°49' E 004°53'0 0.0
2017-Sep-18 10:00N 51°49' E 004°53'0 0.0
2017-Sep-18 09:31N 51°49' E 004°53'0 0.0
2017-Sep-18 09:00N 51°49' E 004°53'0 0.0
2017-Sep-18 08:30N 51°49' E 004°53'0 0.1
2017-Sep-18 08:01N 51°49' E 004°53'0 0.1
2017-Sep-18 07:30N 51°49' E 004°53'0 0.0
2017-Sep-18 07:00N 51°49' E 004°53'0 0.0
2017-Sep-18 06:31N 51°49' E 004°53'0 0.0
2017-Sep-18 06:00N 51°49' E 004°53'  
2017-Sep-14 09:06N 51°49' E 004°53'0 0.1
2017-Sep-14 09:00N 51°49' E 004°53'0 0.0
2017-Sep-13 14:17N 51°49' E 004°53'0 0.0
2017-Sep-13 14:00N 51°49' E 004°53'0 0.0
2017-Sep-13 13:30N 51°49' E 004°53'0 0.0
2017-Sep-13 13:00N 51°49' E 004°53'0 0.0
2017-Sep-13 12:30N 51°49' E 004°53'0 0.0
2017-Sep-13 11:58N 51°49' E 004°53'0 0.0
2017-Sep-13 11:30N 51°49' E 004°53'0 0.0
2017-Sep-13 11:00N 51°49' E 004°53'0 0.0
2017-Sep-13 10:30N 51°49' E 004°53'0 0.0
2017-Sep-13 10:00N 51°49' E 004°53'0 0.0
2017-Sep-13 09:30N 51°49' E 004°53'0 0.0
2017-Sep-13 09:00N 51°49' E 004°53'0 0.0
2017-Sep-13 08:30N 51°49' E 004°53'0 0.0
2017-Sep-13 08:00N 51°49' E 004°53'0 0.0
2017-Sep-13 07:30N 51°49' E 004°53'0 0.0
2017-Sep-13 07:00N 51°49' E 004°53'0 0.0
2017-Sep-13 06:26N 51°49' E 004°53'0 0.0
2017-Sep-13 06:00N 51°49' E 004°53'0 0.0
2017-Sep-12 15:09N 51°49' E 004°53'0 0.0
2017-Sep-12 15:00N 51°49' E 004°53'0 0.0
2017-Sep-12 14:31N 51°49' E 004°53'0 0.0
2017-Sep-11 14:06N 51°49' E 004°53'0 0.0
2017-Sep-11 14:00N 51°49' E 004°53'0 0.0
2017-Sep-11 13:30N 51°49' E 004°53'  
Track history (hours):
 
Tides and Currents Weather Stations Pressure Air Temp Water Temp Dewpoint Dewpoint Depression Visibility Wind Speed Wind Dir Waves Ship Positions

Gouwestroom

Last reported at 2017-Sep-21 13:23 UTC. Time now 2017-Sep-24 03:32 UTC.
Position N 51°49' E 004°53'.

Length 20 m; draft 2.4 m.

Type: Tug. MMSI: 246166000.

Date/timePositionNaut miles runAvg speedWind from/ knotsBaromVisibWave heightAir tempDewpointWater temp
2017-Sep-21 13:23N 51°49' E 004°53'0 0.0
2017-Sep-20 17:46N 51°49' E 004°53'0 0.1
2017-Sep-20 17:30N 51°49' E 004°53'3 6.4
2017-Sep-20 17:00N 51°49' E 004°47'4 7.3
2017-Sep-20 16:31N 51°49' E 004°42'4 7.2
2017-Sep-20 15:59N 51°52' E 004°38'1 1.9
2017-Sep-20 15:30N 51°53' E 004°37'0 0.1
2017-Sep-20 15:00N 51°53' E 004°37'0 0.3
2017-Sep-20 14:00N 51°53' E 004°37'0 0.6
2017-Sep-20 13:30N 51°53' E 004°37'0 0.3
2017-Sep-20 13:00N 51°53' E 004°37'0 0.0
2017-Sep-20 12:30N 51°53' E 004°37'0 0.1
2017-Sep-20 12:00N 51°53' E 004°37'0 0.1
2017-Sep-20 11:30N 51°53' E 004°37'4 7.7
2017-Sep-20 11:01N 51°50' E 004°40'4 7.4
2017-Sep-20 10:31N 51°49' E 004°46'3 6.9
2017-Sep-20 10:00N 51°49' E 004°52'1 0.0
2017-Sep-18 12:08N 51°49' E 004°53'0 0.0
2017-Sep-18 12:00N 51°49' E 004°53'0 0.1
2017-Sep-18 11:31N 51°49' E 004°53'0 0.1
2017-Sep-18 11:01N 51°49' E 004°53'0 0.0
2017-Sep-18 10:30N 51°49' E 004°53'0 0.0
2017-Sep-18 10:00N 51°49' E 004°53'0 0.0
2017-Sep-18 09:31N 51°49' E 004°53'0 0.0
2017-Sep-18 09:00N 51°49' E 004°53'0 0.0
2017-Sep-18 08:30N 51°49' E 004°53'0 0.1
2017-Sep-18 08:01N 51°49' E 004°53'0 0.1
2017-Sep-18 07:30N 51°49' E 004°53'0 0.0
2017-Sep-18 07:00N 51°49' E 004°53'0 0.0
2017-Sep-18 06:31N 51°49' E 004°53'0 0.0
2017-Sep-18 06:00N 51°49' E 004°53'  
2017-Sep-14 09:06N 51°49' E 004°53'0 0.1
2017-Sep-14 09:00N 51°49' E 004°53'0 0.0
2017-Sep-13 14:17N 51°49' E 004°53'0 0.0
2017-Sep-13 14:00N 51°49' E 004°53'0 0.0
2017-Sep-13 13:30N 51°49' E 004°53'0 0.0
2017-Sep-13 13:00N 51°49' E 004°53'0 0.0
2017-Sep-13 12:30N 51°49' E 004°53'0 0.0
2017-Sep-13 11:58N 51°49' E 004°53'0 0.0
2017-Sep-13 11:30N 51°49' E 004°53'0 0.0
2017-Sep-13 11:00N 51°49' E 004°53'0 0.0
2017-Sep-13 10:30N 51°49' E 004°53'0 0.0
2017-Sep-13 10:00N 51°49' E 004°53'0 0.0
2017-Sep-13 09:30N 51°49' E 004°53'0 0.0
2017-Sep-13 09:00N 51°49' E 004°53'0 0.0
2017-Sep-13 08:30N 51°49' E 004°53'0 0.0
2017-Sep-13 08:00N 51°49' E 004°53'0 0.0
2017-Sep-13 07:30N 51°49' E 004°53'0 0.0
2017-Sep-13 07:00N 51°49' E 004°53'0 0.0
2017-Sep-13 06:26N 51°49' E 004°53'0 0.0
2017-Sep-13 06:00N 51°49' E 004°53'0 0.0
2017-Sep-12 15:09N 51°49' E 004°53'0 0.0
2017-Sep-12 15:00N 51°49' E 004°53'0 0.0
2017-Sep-12 14:31N 51°49' E 004°53'0 0.0
2017-Sep-11 14:06N 51°49' E 004°53'0 0.0
2017-Sep-11 14:00N 51°49' E 004°53'0 0.0
2017-Sep-11 13:30N 51°49' E 004°53'  

Dump ship's entire track history